createdAt,value
2018-08-28T00:02:03.999Z,12.60
2018-08-28T00:04:33.371Z,12.50
2018-08-28T00:07:02.776Z,12.60
2018-08-28T00:09:32.386Z,12.60
2018-08-28T00:12:01.706Z,12.50
2018-08-28T00:14:31.252Z,12.40
2018-08-28T00:17:00.867Z,12.30
2018-08-28T00:19:30.341Z,12.40
2018-08-28T00:21:59.976Z,12.40
2018-08-28T00:24:29.532Z,12.60
2018-08-28T00:26:58.954Z,12.80
2018-08-28T00:29:28.252Z,12.80
2018-08-28T00:31:57.850Z,12.90
2018-08-28T00:34:27.427Z,13.00
2018-08-28T00:36:56.801Z,13.10
2018-08-28T00:39:26.158Z,13.20
2018-08-28T00:41:55.849Z,13.30
2018-08-28T00:44:25.340Z,13.40
2018-08-28T00:46:54.897Z,13.30
2018-08-28T00:49:24.311Z,13.30
2018-08-28T00:51:53.728Z,13.30
2018-08-28T00:54:23.270Z,13.30
2018-08-28T00:56:52.765Z,13.40
2018-08-28T00:59:22.032Z,13.40
2018-08-28T01:01:51.318Z,13.40
2018-08-28T01:04:20.750Z,13.50
2018-08-28T01:06:50.636Z,13.60
2018-08-28T01:09:20.426Z,13.60
2018-08-28T01:11:49.827Z,13.60
2018-08-28T01:14:19.353Z,13.60
2018-08-28T01:16:48.696Z,13.70
2018-08-28T01:19:18.100Z,13.70
2018-08-28T01:21:47.565Z,13.80
2018-08-28T01:24:17.042Z,13.80
2018-08-28T01:26:46.450Z,13.90
2018-08-28T01:29:15.823Z,13.90
2018-08-28T01:31:45.277Z,13.90
2018-08-28T01:34:14.739Z,13.90
2018-08-28T01:36:44.287Z,14.00
2018-08-28T01:39:13.575Z,14.00
2018-08-28T01:41:42.916Z,14.00
2018-08-28T01:46:48.907Z,14.10
2018-08-28T01:49:18.212Z,14.10
2018-08-28T01:51:47.503Z,14.10
2018-08-28T01:54:17.123Z,14.20
2018-08-28T01:56:46.505Z,14.10
2018-08-28T01:59:15.937Z,14.20
2018-08-28T02:01:45.965Z,14.20
2018-08-28T02:04:15.351Z,14.30
2018-08-28T02:06:44.766Z,14.40
2018-08-28T02:09:14.345Z,14.30
2018-08-28T02:11:43.671Z,14.30
2018-08-28T02:14:13.034Z,14.40
2018-08-28T02:16:42.409Z,14.60
2018-08-28T02:19:11.785Z,14.90
2018-08-28T02:21:41.307Z,15.10
2018-08-28T02:24:41.229Z,15.20
2018-08-28T02:27:10.662Z,15.30
2018-08-28T02:29:40.095Z,15.30
2018-08-28T02:32:09.491Z,15.30
2018-08-28T02:34:39.112Z,15.20
2018-08-28T02:37:08.789Z,15.10
2018-08-28T02:39:38.239Z,14.90
2018-08-28T02:42:07.674Z,14.80
2018-08-28T02:44:36.996Z,14.70
2018-08-28T02:47:06.838Z,14.70
2018-08-28T02:49:36.245Z,14.70
2018-08-28T02:52:05.668Z,14.80
2018-08-28T02:54:34.960Z,14.80
2018-08-28T02:57:03.984Z,14.80
2018-08-28T02:59:33.416Z,14.80
2018-08-28T03:02:02.720Z,14.80
2018-08-28T03:04:32.302Z,14.80
2018-08-28T03:07:01.587Z,14.70
2018-08-28T03:09:31.147Z,14.60
2018-08-28T03:12:00.606Z,14.40
2018-08-28T03:14:29.980Z,14.30
2018-08-28T03:16:59.431Z,14.20
2018-08-28T03:19:28.825Z,14.10
2018-08-28T03:21:58.435Z,13.90
2018-08-28T03:24:27.866Z,13.80
2018-08-28T03:26:57.306Z,13.70
2018-08-28T03:29:26.765Z,13.60
2018-08-28T03:31:56.237Z,13.50
2018-08-28T03:34:25.676Z,13.50
2018-08-28T03:36:55.942Z,13.60
2018-08-28T03:39:25.311Z,13.60
2018-08-28T03:41:54.764Z,13.70
2018-08-28T03:44:24.372Z,14.00
2018-08-28T03:46:53.970Z,14.10
2018-08-28T03:49:23.379Z,14.10
2018-08-28T03:51:52.764Z,14.30
2018-08-28T03:54:22.202Z,14.40
2018-08-28T03:56:51.634Z,14.40
2018-08-28T03:59:21.030Z,14.30
2018-08-28T04:01:50.476Z,14.40
2018-08-28T04:04:19.761Z,14.30
2018-08-28T04:06:49.833Z,14.20
2018-08-28T04:09:19.157Z,14.10
2018-08-28T04:11:48.776Z,14.00
2018-08-28T04:14:18.066Z,13.90
2018-08-28T04:16:47.540Z,14.00
2018-08-28T04:19:16.868Z,13.90
2018-08-28T04:21:46.266Z,13.70
2018-08-28T04:24:15.507Z,13.50
2018-08-28T04:26:45.072Z,13.20
2018-08-28T04:29:16.367Z,13.10
2018-08-28T04:31:45.968Z,13.10
2018-08-28T04:34:15.397Z,13.10
2018-08-28T04:36:44.669Z,13.10
2018-08-28T04:39:14.140Z,13.00
2018-08-28T04:41:43.732Z,13.00
2018-08-28T04:44:13.065Z,12.90
2018-08-28T04:46:42.417Z,12.90
2018-08-28T04:49:11.990Z,13.00
2018-08-28T04:51:41.358Z,13.10
2018-08-28T04:54:10.644Z,13.30
2018-08-28T04:56:40.200Z,13.40
2018-08-28T04:59:09.745Z,13.60
2018-08-28T05:01:39.209Z,13.70
2018-08-28T05:04:08.612Z,13.90
2018-08-28T05:06:38.128Z,14.00
2018-08-28T05:09:08.018Z,14.20
2018-08-28T05:11:37.568Z,14.30
2018-08-28T05:14:06.986Z,14.50
2018-08-28T05:16:36.717Z,14.60
2018-08-28T05:19:06.131Z,14.70
2018-08-28T05:21:35.670Z,14.80
2018-08-28T05:24:05.023Z,14.80
2018-08-28T05:26:34.529Z,14.80
2018-08-28T05:29:04.067Z,14.80
2018-08-28T05:31:33.383Z,15.00
2018-08-28T05:34:02.601Z,15.20
2018-08-28T05:36:34.683Z,15.50
2018-08-28T05:39:04.655Z,16.10
2018-08-28T05:41:34.118Z,16.90
2018-08-28T05:44:03.428Z,17.70
2018-08-28T05:46:32.745Z,18.30
2018-08-28T05:49:02.102Z,19.00
2018-08-28T05:51:31.496Z,19.60
2018-08-28T05:54:00.976Z,20.00
2018-08-28T05:56:30.373Z,20.30
2018-08-28T05:58:59.707Z,20.40
2018-08-28T06:01:28.894Z,20.70
2018-08-28T06:03:58.480Z,20.90
2018-08-28T06:06:29.027Z,21.20
2018-08-28T06:08:58.207Z,21.60
2018-08-28T06:11:27.522Z,21.70
2018-08-28T06:13:56.815Z,21.40
2018-08-28T06:16:26.272Z,20.90
2018-08-28T06:18:55.794Z,20.50
2018-08-28T06:21:25.252Z,20.10
2018-08-28T06:23:54.781Z,19.60
2018-08-28T06:26:24.366Z,19.50
2018-08-28T06:28:53.817Z,19.70
2018-08-28T06:31:23.284Z,19.60
2018-08-28T06:33:52.933Z,19.40
2018-08-28T06:36:22.543Z,18.60
2018-08-28T06:38:52.146Z,18.70
2018-08-28T06:41:21.946Z,19.00
2018-08-28T06:43:51.375Z,19.20
2018-08-28T06:46:20.924Z,18.80
2018-08-28T06:48:50.469Z,19.10
2018-08-28T06:51:19.951Z,18.70
2018-08-28T06:53:49.351Z,19.20
2018-08-28T06:56:18.917Z,18.70
2018-08-28T06:58:48.540Z,18.50
2018-08-28T07:01:18.073Z,18.70
2018-08-28T07:03:47.645Z,18.80
2018-08-28T07:06:16.838Z,18.70
2018-08-28T07:08:46.379Z,19.60
2018-08-28T07:11:15.946Z,19.80
2018-08-28T07:13:45.382Z,19.30
2018-08-28T07:16:14.757Z,20.20
2018-08-28T07:18:44.072Z,21.50
2018-08-28T07:21:13.653Z,22.10
2018-08-28T07:23:43.116Z,22.80
2018-08-28T07:26:12.567Z,24.40
2018-08-28T07:28:41.838Z,23.40
2018-08-28T07:31:11.392Z,22.20
2018-08-28T07:33:40.825Z,21.70
2018-08-28T07:36:10.342Z,21.00
2018-08-28T07:38:39.798Z,19.30
2018-08-28T07:41:09.240Z,19.00
2018-08-28T07:43:38.676Z,20.00
2018-08-28T07:46:08.255Z,20.90
2018-08-28T07:48:37.492Z,22.30
2018-08-28T07:51:07.028Z,22.30
2018-08-28T07:53:36.346Z,21.30
2018-08-28T07:56:05.671Z,21.70
2018-08-28T07:58:35.108Z,23.20
2018-08-28T08:01:04.306Z,22.60
2018-08-28T08:03:33.901Z,22.70
2018-08-28T08:06:03.298Z,24.00
2018-08-28T08:08:33.067Z,22.80
2018-08-28T08:11:02.511Z,20.70
2018-08-28T08:13:31.892Z,20.40
2018-08-28T08:16:01.147Z,21.20
2018-08-28T08:18:30.481Z,22.70
2018-08-28T08:20:59.950Z,24.30
2018-08-28T08:23:29.448Z,25.30
2018-08-28T08:25:59.155Z,25.70
2018-08-28T08:28:28.633Z,24.80
2018-08-28T08:30:58.038Z,25.40
2018-08-28T08:33:27.527Z,25.50
2018-08-28T08:35:57.075Z,25.90
2018-08-28T08:38:26.478Z,24.80
2018-08-28T08:40:55.949Z,23.40
2018-08-28T08:43:25.491Z,23.10
2018-08-28T08:45:54.960Z,23.80
2018-08-28T08:48:24.288Z,24.50
2018-08-28T08:50:53.559Z,24.90
2018-08-28T08:53:22.920Z,22.20
2018-08-28T08:55:52.296Z,20.60
2018-08-28T08:58:21.695Z,20.60
2018-08-28T09:00:51.120Z,21.90
2018-08-28T09:03:20.689Z,22.10
2018-08-28T09:05:50.012Z,22.60
2018-08-28T09:08:19.375Z,24.40
2018-08-28T09:10:49.009Z,26.10
2018-08-28T09:13:18.309Z,26.60
2018-08-28T09:15:47.932Z,27.40
2018-08-28T09:18:17.269Z,25.60
2018-08-28T09:20:46.763Z,26.40
2018-08-28T09:23:16.184Z,25.00
2018-08-28T09:25:45.652Z,25.40
2018-08-28T09:28:15.430Z,25.40
2018-08-28T09:30:47.954Z,26.30
2018-08-28T09:33:25.574Z,25.60
2018-08-28T09:35:55.395Z,24.40
2018-08-28T09:38:24.853Z,24.20
2018-08-28T09:40:54.325Z,25.80
2018-08-28T09:43:23.913Z,26.40
2018-08-28T09:46:08.324Z,27.90
2018-08-28T09:48:37.743Z,28.30
2018-08-28T09:51:07.130Z,28.70
2018-08-28T09:53:36.256Z,27.00
2018-08-28T09:56:05.850Z,23.90
2018-08-28T09:58:35.623Z,23.80
2018-08-28T10:01:10.066Z,25.00
2018-08-28T10:03:39.613Z,24.30
2018-08-28T10:06:08.899Z,23.30
2018-08-28T10:08:38.433Z,24.40
2018-08-28T10:11:07.744Z,25.20
2018-08-28T10:13:37.274Z,25.10
2018-08-28T10:16:06.646Z,23.70
2018-08-28T10:18:35.711Z,25.30
2018-08-28T10:21:05.314Z,26.80
2018-08-28T10:23:34.922Z,28.40
2018-08-28T10:26:04.596Z,27.20
2018-08-28T10:28:33.780Z,27.60
2018-08-28T10:31:03.422Z,28.30
2018-08-28T10:33:32.730Z,27.30
2018-08-28T10:36:02.010Z,28.00
2018-08-28T10:38:31.566Z,28.10
2018-08-28T10:41:01.097Z,26.80
2018-08-28T10:43:30.697Z,26.20
2018-08-28T10:46:00.800Z,26.70
2018-08-28T10:48:31.857Z,26.20
2018-08-28T10:51:01.138Z,27.30
2018-08-28T10:53:30.522Z,26.30
2018-08-28T10:55:59.992Z,27.20
2018-08-28T10:58:29.450Z,26.50
2018-08-28T11:00:59.051Z,26.20
2018-08-28T11:03:28.702Z,25.70
2018-08-28T11:05:58.221Z,26.20
2018-08-28T11:08:27.736Z,25.40
2018-08-28T11:10:57.211Z,25.40
2018-08-28T11:13:26.626Z,24.10
2018-08-28T11:15:55.977Z,24.10
2018-08-28T11:18:25.513Z,24.80
2018-08-28T11:20:54.944Z,26.50
2018-08-28T11:23:24.279Z,28.10
2018-08-28T11:25:53.811Z,29.00
2018-08-28T11:28:23.364Z,28.40
2018-08-28T11:30:52.905Z,29.20
2018-08-28T11:33:22.495Z,28.60
2018-08-28T11:35:52.079Z,28.40
2018-08-28T11:38:21.630Z,26.80
2018-08-28T11:40:51.067Z,26.40
2018-08-28T11:43:20.715Z,27.70
2018-08-28T11:45:50.481Z,29.00
2018-08-28T11:48:20.457Z,29.80
2018-08-28T11:50:50.081Z,29.80
2018-08-28T11:53:19.322Z,29.70
2018-08-28T11:55:48.718Z,27.30
2018-08-28T11:58:18.270Z,28.30
2018-08-28T12:00:47.464Z,29.40
2018-08-28T12:03:16.996Z,30.60
2018-08-28T12:05:46.323Z,30.60
2018-08-28T12:08:15.857Z,30.70
2018-08-28T12:10:45.278Z,31.10
2018-08-28T12:13:14.946Z,31.10
2018-08-28T12:15:44.478Z,30.50
2018-08-28T12:18:13.928Z,27.80
2018-08-28T12:20:43.416Z,27.60
2018-08-28T12:23:12.836Z,27.10
2018-08-28T12:25:42.414Z,27.00
2018-08-28T12:28:11.910Z,26.60
2018-08-28T12:30:41.347Z,27.60
2018-08-28T12:33:10.759Z,28.70
2018-08-28T12:35:40.377Z,29.40
2018-08-28T12:38:09.747Z,30.70
2018-08-28T12:40:39.159Z,29.90
2018-08-28T12:43:08.945Z,29.70
2018-08-28T12:45:38.575Z,27.40
2018-08-28T12:48:08.237Z,28.00
2018-08-28T12:50:37.791Z,27.00
2018-08-28T12:53:06.923Z,27.50
2018-08-28T12:55:36.567Z,28.20
2018-08-28T12:58:06.115Z,28.40
2018-08-28T13:00:35.660Z,28.50
2018-08-28T13:03:04.795Z,29.10
2018-08-28T13:05:34.937Z,29.10
2018-08-28T13:08:04.696Z,30.10
2018-08-28T13:10:34.285Z,30.70
2018-08-28T13:13:03.881Z,30.50
2018-08-28T13:15:33.166Z,29.80
2018-08-28T13:18:02.537Z,30.40
2018-08-28T13:20:32.593Z,31.00
2018-08-28T13:23:01.963Z,31.50
2018-08-28T13:25:31.571Z,30.50
2018-08-28T13:28:01.151Z,29.70
2018-08-28T13:30:30.435Z,29.20
2018-08-28T13:32:59.939Z,28.90
2018-08-28T13:35:33.865Z,29.90
2018-08-28T13:38:03.044Z,30.80
2018-08-28T13:40:32.773Z,31.80
2018-08-28T13:43:02.279Z,30.90
2018-08-28T13:45:31.675Z,29.20
2018-08-28T13:48:01.439Z,28.10
2018-08-28T13:50:30.891Z,28.50
2018-08-28T13:53:00.443Z,28.60
2018-08-28T13:55:29.988Z,28.90
2018-08-28T13:57:59.844Z,29.70
2018-08-28T14:00:33.248Z,30.20
2018-08-28T14:03:02.907Z,30.70
2018-08-28T14:05:32.746Z,30.80
2018-08-28T14:08:02.402Z,30.10
2018-08-28T14:10:31.989Z,29.90
2018-08-28T14:13:01.722Z,29.10
2018-08-28T14:15:31.356Z,29.00
2018-08-28T14:18:00.864Z,28.80
2018-08-28T14:20:30.479Z,28.90
2018-08-28T14:23:00.210Z,30.30
2018-08-28T14:25:29.781Z,30.10
2018-08-28T14:27:59.687Z,30.60
2018-08-28T14:30:29.699Z,31.30
2018-08-28T14:32:59.189Z,29.50
2018-08-28T14:35:28.849Z,30.10
2018-08-28T14:37:58.475Z,30.70
2018-08-28T14:40:28.016Z,31.10
2018-08-28T14:42:57.645Z,30.70
2018-08-28T14:45:27.121Z,30.10
2018-08-28T14:47:56.812Z,28.90
2018-08-28T14:50:26.552Z,30.00
2018-08-28T14:52:55.929Z,29.20
2018-08-28T14:55:25.308Z,28.30
2018-08-28T14:57:54.717Z,27.60
2018-08-28T15:00:24.112Z,27.60
2018-08-28T15:02:53.440Z,27.80
2018-08-28T15:05:22.807Z,27.00
2018-08-28T15:07:52.389Z,27.20
2018-08-28T15:10:21.919Z,26.10
2018-08-28T15:12:51.365Z,26.30
2018-08-28T15:15:20.714Z,27.30
2018-08-28T15:17:50.246Z,27.90
2018-08-28T15:20:19.638Z,28.30
2018-08-28T15:22:49.146Z,26.80
2018-08-28T15:25:18.718Z,27.10
2018-08-28T15:27:48.084Z,27.60
2018-08-28T15:30:17.281Z,28.60
2018-08-28T15:32:46.671Z,29.30
2018-08-28T15:35:16.158Z,28.90
2018-08-28T15:37:45.401Z,28.90
2018-08-28T15:40:14.827Z,29.00
2018-08-28T15:42:44.501Z,29.70
2018-08-28T15:45:13.760Z,30.20
2018-08-28T15:47:43.282Z,30.40
2018-08-28T15:50:12.658Z,29.90
2018-08-28T15:52:42.294Z,28.90
2018-08-28T15:55:11.661Z,28.50
2018-08-28T15:57:41.035Z,27.90
2018-08-28T16:00:10.681Z,28.10
2018-08-28T16:02:40.291Z,28.20
2018-08-28T16:05:09.836Z,28.50
2018-08-28T16:07:39.114Z,28.20
2018-08-28T16:10:08.754Z,28.10
2018-08-28T16:12:38.053Z,28.40
2018-08-28T16:15:07.819Z,28.00
2018-08-28T16:17:37.384Z,28.20
2018-08-28T16:20:07.102Z,28.30
2018-08-28T16:22:41.306Z,27.80
2018-08-28T16:25:10.760Z,27.90
2018-08-28T16:27:40.100Z,27.90
2018-08-28T16:30:09.507Z,28.10
2018-08-28T16:32:38.876Z,28.30
2018-08-28T16:35:08.233Z,28.50
2018-08-28T16:37:38.058Z,28.40
2018-08-28T16:40:07.621Z,28.30
2018-08-28T16:42:36.888Z,28.20
2018-08-28T16:45:06.429Z,27.80
2018-08-28T16:47:35.704Z,27.30
2018-08-28T16:50:05.216Z,27.10
2018-08-28T16:52:34.240Z,27.10
2018-08-28T16:55:04.133Z,27.20
2018-08-28T16:57:33.579Z,27.20
2018-08-28T17:00:03.273Z,26.90
2018-08-28T17:02:32.911Z,26.50
2018-08-28T17:05:02.349Z,26.00
2018-08-28T17:07:31.795Z,25.60
2018-08-28T17:10:01.293Z,25.30
2018-08-28T17:12:30.777Z,24.90
2018-08-28T17:15:00.290Z,24.60
2018-08-28T17:17:29.685Z,24.40
2018-08-28T17:19:59.410Z,24.10
2018-08-28T17:22:28.782Z,23.90
2018-08-28T17:24:58.276Z,23.60
2018-08-28T17:27:27.849Z,23.40
2018-08-28T17:29:57.252Z,23.20
2018-08-28T17:32:26.599Z,23.10
2018-08-28T17:34:56.087Z,23.00
2018-08-28T17:37:25.612Z,22.70
2018-08-28T17:39:55.083Z,22.50
2018-08-28T17:42:25.210Z,22.20
2018-08-28T17:44:54.923Z,21.90
2018-08-28T17:47:24.452Z,21.50
2018-08-28T17:49:55.391Z,21.00
2018-08-28T17:52:26.929Z,20.70
2018-08-28T17:54:56.479Z,20.50
2018-08-28T17:57:25.751Z,20.30
2018-08-28T17:59:55.348Z,20.10
2018-08-28T18:02:25.558Z,19.70
2018-08-28T18:04:55.038Z,19.40
2018-08-28T18:07:25.318Z,19.10
2018-08-28T18:09:54.896Z,18.90
2018-08-28T18:12:24.507Z,18.60
2018-08-28T18:14:53.961Z,18.30
2018-08-28T18:17:23.496Z,18.20
2018-08-28T18:19:53.191Z,18.00
2018-08-28T18:22:22.783Z,17.80
2018-08-28T18:24:52.336Z,17.70
2018-08-28T18:27:22.036Z,17.60
2018-08-28T18:29:51.835Z,17.50
2018-08-28T18:32:23.482Z,17.40
2018-08-28T18:34:52.701Z,17.30
2018-08-28T18:37:22.016Z,17.10
2018-08-28T18:39:51.720Z,17.10
2018-08-28T18:42:20.966Z,17.10
2018-08-28T18:44:51.052Z,17.00
2018-08-28T18:47:21.104Z,17.00
2018-08-28T18:49:50.744Z,16.80
2018-08-28T18:52:20.722Z,16.60
2018-08-28T18:54:50.149Z,16.40
2018-08-28T18:57:24.929Z,16.20
2018-08-28T18:59:54.290Z,16.00
2018-08-28T19:02:25.400Z,15.80
2018-08-28T19:04:57.019Z,15.60
2018-08-28T19:07:27.183Z,15.50
2018-08-28T19:09:57.967Z,15.40
2018-08-28T19:12:28.225Z,15.30
2018-08-28T19:14:59.300Z,15.20
2018-08-28T19:17:28.788Z,15.10
2018-08-28T19:19:58.172Z,15.10
2018-08-28T19:22:28.268Z,15.00
2018-08-28T19:24:58.282Z,14.90
2018-08-28T19:27:27.872Z,14.80
2018-08-28T19:29:57.476Z,14.60
2018-08-28T19:32:27.302Z,14.50
2018-08-28T19:34:57.275Z,14.40
2018-08-28T19:37:26.835Z,14.40
2018-08-28T19:39:56.536Z,14.20
2018-08-28T19:42:26.280Z,14.10
2018-08-28T19:44:56.481Z,14.00
2018-08-28T19:47:26.034Z,13.90
2018-08-28T19:49:55.561Z,13.90
2018-08-28T19:52:25.937Z,13.80
2018-08-28T19:54:55.410Z,13.80
2018-08-28T19:57:25.023Z,13.70
2018-08-28T19:59:54.693Z,13.80
2018-08-28T20:02:24.279Z,13.80
2018-08-28T20:04:53.739Z,13.70
2018-08-28T20:07:23.687Z,13.60
2018-08-28T20:09:53.130Z,13.50
2018-08-28T20:12:22.679Z,13.50
2018-08-28T20:14:52.419Z,13.50
2018-08-28T20:17:22.279Z,13.40
2018-08-28T20:19:51.894Z,13.30
2018-08-28T20:22:21.452Z,13.30
2018-08-28T20:24:51.390Z,13.30
2018-08-28T20:27:21.035Z,13.30
2018-08-28T20:29:51.005Z,13.20
2018-08-28T20:32:20.504Z,13.10
2018-08-28T20:34:50.020Z,13.00
2018-08-28T20:37:19.619Z,12.90
2018-08-28T20:39:49.018Z,12.80
2018-08-28T20:42:18.668Z,12.80
2018-08-28T20:44:48.073Z,13.00
2018-08-28T20:47:17.623Z,13.00
2018-08-28T20:49:47.451Z,12.90
2018-08-28T20:52:16.815Z,12.70
2018-08-28T20:54:46.622Z,12.60
2018-08-28T20:57:16.134Z,12.50
2018-08-28T20:59:46.026Z,12.40
2018-08-28T21:02:15.948Z,12.30
2018-08-28T21:04:45.592Z,12.20
2018-08-28T21:07:15.629Z,12.10
2018-08-28T21:09:45.519Z,12.10
2018-08-28T21:12:15.174Z,12.00
2018-08-28T21:14:45.021Z,11.90
2018-08-28T21:17:14.341Z,11.80
2018-08-28T21:19:44.320Z,11.80
2018-08-28T21:22:14.080Z,11.70
2018-08-28T21:24:44.013Z,11.70
2018-08-28T21:27:13.772Z,11.70
2018-08-28T21:29:43.702Z,11.70
2018-08-28T21:32:13.712Z,11.70
2018-08-28T21:34:44.310Z,11.60
2018-08-28T21:37:13.851Z,11.50
2018-08-28T21:39:43.957Z,11.40
2018-08-28T21:42:13.723Z,11.30
2018-08-28T21:44:42.979Z,11.30
2018-08-28T21:47:12.368Z,11.30
2018-08-28T21:49:42.025Z,11.40
2018-08-28T21:52:11.547Z,11.50
2018-08-28T21:54:41.855Z,11.70
2018-08-28T21:57:11.983Z,11.80
2018-08-28T21:59:42.080Z,11.80
2018-08-28T22:02:12.104Z,11.60
2018-08-28T22:04:41.937Z,11.50
2018-08-28T22:07:16.940Z,11.50
2018-08-28T22:09:46.524Z,11.30
2018-08-28T22:12:16.184Z,11.30
2018-08-28T22:14:46.285Z,11.10
2018-08-28T22:17:16.419Z,11.10
2018-08-28T22:22:29.902Z,10.90
2018-08-28T22:24:59.241Z,11.00
2018-08-28T22:27:28.495Z,11.10
2018-08-28T22:29:58.070Z,11.00
2018-08-28T22:32:27.389Z,11.00
2018-08-28T22:34:56.866Z,11.10
2018-08-28T22:37:26.456Z,11.10
2018-08-28T22:39:56.143Z,11.30
2018-08-28T22:42:26.487Z,11.30
2018-08-28T22:44:55.909Z,11.50
2018-08-28T22:47:25.406Z,11.50
2018-08-28T22:50:01.595Z,11.40
2018-08-28T22:52:31.180Z,11.20
2018-08-28T22:55:00.650Z,11.00
2018-08-28T22:57:30.320Z,10.80
2018-08-28T22:59:59.721Z,10.60
2018-08-28T23:02:29.129Z,10.40
2018-08-28T23:04:58.667Z,10.30
2018-08-28T23:07:28.420Z,10.10
2018-08-28T23:09:57.962Z,10.20
2018-08-28T23:12:27.576Z,10.60
2018-08-28T23:14:57.383Z,10.80
2018-08-28T23:17:26.830Z,10.90
2018-08-28T23:19:56.513Z,10.80
2018-08-28T23:22:25.978Z,10.60
2018-08-28T23:24:56.551Z,10.40
2018-08-28T23:27:25.874Z,10.30
2018-08-28T23:29:55.194Z,10.20
2018-08-28T23:32:24.734Z,10.10
2018-08-28T23:34:54.124Z,9.90
2018-08-28T23:37:23.459Z,9.90
2018-08-28T23:39:52.954Z,9.90
2018-08-28T23:42:22.301Z,9.80
2018-08-28T23:44:51.585Z,9.90
2018-08-28T23:47:21.277Z,9.90
2018-08-28T23:49:50.802Z,10.00
2018-08-28T23:52:20.349Z,10.00
2018-08-28T23:54:49.845Z,10.00
2018-08-28T23:57:19.278Z,9.90
2018-08-28T23:59:48.785Z,9.80
